McCain, North Carolina
Current Conditions -  °F | °C
As of 4:56 PM on Friday 24 Oct 2014 (Local Time) from KHFF Reporting Station
Few Clouds Few Clouds  
Wind Chill: 69°   Ceiling: Unl
Heat Index: 69°   Visibility: 10mi
Dew Point: 45°   Wind: 6mph
Humidity: 41%   Direction: 340°NNW
Pressure: 29.98"   Gusts: NA
Location:  35.07°N, 79.34°W
Report Text: KHFF 242056Z AUTO 34005KT 10SM FEW220 21/07 A2998 RMK AO2 SLP154 T02080071 56011
Loading
Personal Weather Stations






























Interactive Weather Map
Tropical Storm Tracking
New forecast layout! Learn more

10-Day Weather Forecast

Advertisements
Track Severe Weather on mobile